Time;durP1;ratioP1;P1;durP2;ratioP2;P2;SDS_P1;SDS_P2;PMS_P1;PMS_P2;Temp;Humidity;BMP_temperature;BMP_pressure;BME280_temperature;BME280_humidity;BME280_pressure;Samples;Min_cycle;Max_cycle;Signal;HPM_P1;HPM_P2
2021/10/27 00:01:17;;;;;;;23.90;15.45;;;13.90;97.40;;;;;;5072184;28;20021;-78
2021/10/27 00:03:43;;;;;;;21.77;15.20;;;13.90;97.40;;;;;;5072455;28;20043;-78
2021/10/27 00:06:08;;;;;;;27.35;14.82;;;13.90;97.30;;;;;;5055609;28;20086;-76
2021/10/27 00:08:34;;;;;;;21.52;14.70;;;13.90;97.40;;;;;;5055899;28;20028;-77
2021/10/27 00:11:00;;;;;;;19.88;14.55;;;13.90;97.30;;;;;;5073500;28;20027;-78
2021/10/27 00:13:25;;;;;;;21.95;15.23;;;14.00;97.40;;;;;;5073725;28;20024;-76
2021/10/27 00:15:51;;;;;;;24.52;15.23;;;14.00;97.40;;;;;;5056234;28;20024;-77
2021/10/27 00:18:17;;;;;;;22.40;13.55;;;14.00;97.50;;;;;;5072295;28;20063;-77
2021/10/27 00:20:43;;;;;;;23.27;15.52;;;14.00;97.70;;;;;;5055835;28;20029;-80
2021/10/27 00:23:09;;;;;;;26.98;14.82;;;14.00;97.50;;;;;;5072218;28;20048;-79
2021/10/27 00:25:34;;;;;;;21.83;14.77;;;14.00;97.50;;;;;;5055880;28;20028;-77
2021/10/27 00:28:00;;;;;;;26.35;15.95;;;14.00;97.80;;;;;;5072122;28;20032;-75
2021/10/27 00:30:26;;;;;;;25.27;14.93;;;14.10;97.50;;;;;;5073784;28;20453;-77
2021/10/27 00:32:51;;;;;;;21.98;14.32;;;14.10;97.50;;;;;;5055829;28;20021;-78
2021/10/27 00:35:17;;;;;;;23.55;14.73;;;14.10;97.50;;;;;;5073352;28;20012;-78
2021/10/27 00:37:43;;;;;;;21.42;16.05;;;14.10;97.50;;;;;;5073537;28;20388;-78
2021/10/27 00:40:09;;;;;;;23.63;15.45;;;14.10;97.50;;;;;;5055799;28;20032;-79
2021/10/27 00:42:35;;;;;;;23.00;15.07;;;14.10;97.50;;;;;;5072148;28;20032;-80
2021/10/27 00:45:01;;;;;;;21.65;16.30;;;14.20;97.50;;;;;;5055301;28;20030;-79
2021/10/27 00:47:27;;;;;;;20.25;14.40;;;14.20;97.50;;;;;;5071848;28;20064;-81
2021/10/27 00:49:53;;;;;;;25.10;15.75;;;14.20;97.50;;;;;;5055315;28;20024;-77
2021/10/27 00:52:19;;;;;;;24.20;15.63;;;14.20;97.50;;;;;;5073199;28;20017;-79
2021/10/27 00:54:48;;;;;;;21.85;14.73;;;14.20;97.60;;;;;;5073335;28;20549;-77
2021/10/27 00:57:16;;;;;;;23.42;15.10;;;14.20;97.60;;;;;;5071895;28;20043;-77
2021/10/27 00:59:44;;;;;;;22.02;15.25;;;14.20;97.60;;;;;;5071839;28;20048;-78
2021/10/27 01:02:11;;;;;;;25.60;16.63;;;14.20;97.70;;;;;;5072202;28;20465;-77
2021/10/27 01:04:37;;;;;;;27.20;16.13;;;14.20;97.70;;;;;;5071765;28;20056;-79
2021/10/27 01:07:04;;;;;;;20.92;15.57;;;14.20;97.80;;;;;;5071588;28;20024;-78
2021/10/27 01:09:31;;;;;;;21.67;15.10;;;14.20;97.90;;;;;;5071689;28;20063;-81
2021/10/27 01:11:59;;;;;;;22.67;13.98;;;14.20;97.90;;;;;;5073231;28;20028;-79
2021/10/27 01:14:40;;;;;;;23.00;16.23;;;14.20;97.90;;;;;;5073005;28;20029;-76
2021/10/27 01:17:08;;;;;;;25.70;15.95;;;14.20;97.90;;;;;;5072904;28;20147;-78
2021/10/27 01:19:47;;;;;;;23.25;17.02;;;14.20;98.00;;;;;;5055342;28;20060;-77
2021/10/27 01:22:19;;;;;;;23.55;15.68;;;14.20;98.00;;;;;;5072941;28;20077;-79
2021/10/27 01:24:45;;;;;;;23.27;16.17;;;14.20;98.10;;;;;;5073250;28;20419;-74
2021/10/27 01:27:11;;;;;;;21.38;15.15;;;14.20;98.10;;;;;;5071907;28;20036;-80
2021/10/27 01:29:37;;;;;;;23.48;15.18;;;14.20;98.20;;;;;;5055004;28;20162;-80
2021/10/27 01:32:04;;;;;;;20.98;13.48;;;14.20;98.20;;;;;;5071927;28;20057;-78
2021/10/27 01:34:30;;;;;;;23.45;14.48;;;14.20;98.20;;;;;;5066699;28;20100;-79
2021/10/27 01:36:55;;;;;;;22.58;14.20;;;14.20;98.20;;;;;;5059990;28;20051;-76
2021/10/27 01:39:21;;;;;;;19.75;13.57;;;14.20;98.30;;;;;;5054060;28;20063;-78
2021/10/27 01:41:47;;;;;;;23.75;14.25;;;14.20;98.40;;;;;;5054999;28;20458;-78
2021/10/27 01:44:12;;;;;;;18.92;13.20;;;14.20;98.40;;;;;;5071570;28;20029;-76
2021/10/27 01:46:39;;;;;;;18.33;12.85;;;14.20;98.30;;;;;;5054821;28;20437;-79
2021/10/27 01:49:08;;;;;;;18.27;11.88;;;14.20;98.30;;;;;;5071445;28;20104;-75
2021/10/27 01:51:35;;;;;;;19.13;12.15;;;14.20;98.20;;;;;;5054855;28;20112;-78
2021/10/27 01:54:02;;;;;;;21.08;12.88;;;14.20;98.30;;;;;;5054592;28;20013;-78
2021/10/27 01:56:27;;;;;;;23.95;13.50;;;14.20;98.30;;;;;;5054532;28;20029;-76
2021/10/27 01:58:54;;;;;;;24.92;13.05;;;14.20;98.40;;;;;;5054569;28;20485;-75
2021/10/27 02:01:20;;;;;;;16.00;11.57;;;14.20;98.40;;;;;;5054424;28;20393;-76
2021/10/27 02:03:46;;;;;;;20.77;13.40;;;14.20;98.40;;;;;;5054545;28;20025;-77
2021/10/27 02:06:12;;;;;;;15.63;10.43;;;14.20;98.50;;;;;;5054719;28;20025;-78
2021/10/27 02:08:38;;;;;;;20.98;11.48;;;14.20;98.40;;;;;;5054607;28;20032;-77
2021/10/27 02:11:05;;;;;;;19.23;11.73;;;14.20;98.70;;;;;;5055514;28;20393;-76
2021/10/27 02:13:31;;;;;;;16.13;10.40;;;14.20;98.40;;;;;;5055629;28;20021;-75
2021/10/27 02:15:57;;;;;;;18.17;11.18;;;14.20;98.70;;;;;;5055567;28;20029;-77
2021/10/27 02:18:22;;;;;;;18.38;11.10;;;14.20;98.40;;;;;;5055643;28;20405;-78
2021/10/27 02:20:48;;;;;;;18.98;11.35;;;14.20;98.40;;;;;;5054059;28;20029;-76
2021/10/27 02:23:15;;;;;;;16.75;10.73;;;14.20;98.40;;;;;;5054049;28;20113;-76
2021/10/27 02:25:40;;;;;;;17.88;10.77;;;14.20;98.40;;;;;;5055148;28;20025;-76
2021/10/27 02:28:06;;;;;;;16.67;10.07;;;14.20;98.40;;;;;;5055282;28;20032;-77
2021/10/27 02:30:32;;;;;;;13.75;9.18;;;14.20;98.40;;;;;;5053985;28;20401;-76
2021/10/27 02:32:59;;;;;;;17.73;10.07;;;14.30;98.40;;;;;;5053761;28;20472;-77
2021/10/27 02:35:25;;;;;;;18.52;9.93;;;14.30;98.30;;;;;;5053810;28;20052;-75
2021/10/27 02:37:51;;;;;;;14.95;8.32;;;14.30;98.30;;;;;;5053966;28;20049;-74
2021/10/27 02:40:17;;;;;;;19.30;9.68;;;14.30;98.20;;;;;;5037319;28;20032;-77
2021/10/27 02:42:43;;;;;;;13.95;7.88;;;14.30;98.20;;;;;;5053780;28;20032;-77
2021/10/27 02:45:10;;;;;;;15.82;8.80;;;14.30;98.10;;;;;;5053867;28;20025;-77
2021/10/27 02:47:36;;;;;;;15.48;8.88;;;14.30;98.10;;;;;;5053806;28;20083;-78
2021/10/27 02:50:03;;;;;;;19.15;8.10;;;14.30;98.10;;;;;;5054833;28;20029;-78
2021/10/27 02:52:29;;;;;;;11.45;7.68;;;14.30;98.00;;;;;;5053531;28;20024;-78
2021/10/27 02:54:54;;;;;;;11.93;7.05;;;14.40;98.00;;;;;;5053503;28;20017;-78
2021/10/27 02:57:20;;;;;;;17.13;7.57;;;14.30;98.00;;;;;;5053580;28;20032;-78
2021/10/27 02:59:46;;;;;;;14.98;7.60;;;14.30;98.00;;;;;;5053419;28;20393;-77
2021/10/27 03:02:11;;;;;;;13.18;7.20;;;14.40;97.90;;;;;;5036978;28;20028;-79
2021/10/27 03:04:37;;;;;;;15.68;6.75;;;14.40;97.90;;;;;;5053319;28;20477;-77
2021/10/27 03:07:03;;;;;;;17.30;6.90;;;14.40;97.80;;;;;;5036678;28;20037;-78
2021/10/27 03:09:29;;;;;;;12.40;6.00;;;14.40;97.80;;;;;;5053297;28;20028;-79
2021/10/27 03:11:54;;;;;;;12.68;6.15;;;14.40;97.80;;;;;;5054507;28;20469;-79
2021/10/27 03:14:20;;;;;;;12.43;5.78;;;14.40;97.80;;;;;;5053338;28;20481;-79
2021/10/27 03:16:47;;;;;;;11.82;5.78;;;14.40;97.70;;;;;;5054258;28;20548;-78
2021/10/27 03:19:13;;;;;;;13.35;6.00;;;14.40;97.70;;;;;;5053013;28;20196;-79
2021/10/27 03:21:38;;;;;;;12.30;5.40;;;14.40;97.60;;;;;;5054388;28;20092;-79
2021/10/27 03:24:06;;;;;;;10.50;4.97;;;14.40;97.60;;;;;;5036421;28;20037;-78
2021/10/27 03:26:32;;;;;;;8.90;4.53;;;14.40;97.60;;;;;;5052736;28;20509;-78
2021/10/27 03:28:57;;;;;;;12.60;4.63;;;14.40;97.50;;;;;;5052831;28;20029;-79
2021/10/27 03:31:23;;;;;;;11.13;4.68;;;14.40;97.50;;;;;;5036549;28;20037;-78
2021/10/27 03:33:49;;;;;;;15.27;5.57;;;14.40;97.50;;;;;;5068536;28;20040;-76
2021/10/27 03:36:15;;;;;;;13.65;4.90;;;14.40;97.40;;;;;;5073970;28;20028;-78
2021/10/27 03:38:41;;;;;;;12.20;4.32;;;14.40;97.40;;;;;;5073784;28;20028;-77
2021/10/27 03:41:07;;;;;;;8.82;3.70;;;14.40;97.40;;;;;;5039921;28;20107;-78
2021/10/27 03:43:32;;;;;;;9.75;4.10;;;14.40;97.30;;;;;;5073933;28;20047;-77
2021/10/27 03:45:58;;;;;;;9.40;3.80;;;14.40;97.30;;;;;;5072834;28;20432;-80
2021/10/27 03:48:24;;;;;;;12.93;4.60;;;14.40;97.30;;;;;;5072583;28;20025;-78
2021/10/27 03:50:50;;;;;;;9.52;3.85;;;14.40;97.30;;;;;;5074224;28;20052;-76
2021/10/27 03:53:16;;;;;;;10.48;3.35;;;14.40;97.20;;;;;;5072846;28;20435;-78
2021/10/27 03:55:42;;;;;;;11.27;3.72;;;14.40;97.20;;;;;;5056052;28;20051;-77
2021/10/27 03:58:07;;;;;;;11.77;3.20;;;14.40;97.20;;;;;;5072527;28;20023;-79
2021/10/27 04:00:36;;;;;;;14.30;4.25;;;14.40;97.10;;;;;;5055773;28;20020;-77
2021/10/27 04:03:02;;;;;;;9.25;3.00;;;14.40;97.10;;;;;;5055697;28;20020;-79
2021/10/27 04:05:27;;;;;;;10.45;3.38;;;14.40;97.00;;;;;;5034386;28;20037;-77
2021/10/27 04:07:53;;;;;;;11.07;3.25;;;14.40;96.90;;;;;;5019133;28;20025;-81
2021/10/27 04:10:19;;;;;;;16.00;4.07;;;14.40;96.90;;;;;;5035227;28;20366;-77
2021/10/27 04:12:44;;;;;;;8.15;2.92;;;14.40;96.90;;;;;;5052346;28;20025;-75
2021/10/27 04:15:12;;;;;;;7.75;2.90;;;14.40;96.80;;;;;;5053371;28;20115;-77
2021/10/27 04:17:38;;;;;;;7.57;2.63;;;14.50;96.70;;;;;;5053188;28;20417;-79
2021/10/27 04:20:05;;;;;;;9.65;3.15;;;14.40;96.70;;;;;;5052185;28;20461;-77
2021/10/27 04:22:32;;;;;;;10.07;3.15;;;14.50;96.70;;;;;;5052126;28;20060;-77
2021/10/27 04:24:58;;;;;;;6.53;2.78;;;14.50;96.60;;;;;;5053278;28;20052;-76
2021/10/27 04:27:24;;;;;;;10.52;3.45;;;14.50;96.60;;;;;;5051841;28;20477;-76
2021/10/27 04:29:49;;;;;;;9.15;2.72;;;14.50;96.60;;;;;;5052010;28;20029;-77
2021/10/27 04:32:15;;;;;;;14.73;3.55;;;14.50;96.50;;;;;;5052032;28;20060;-76
2021/10/27 04:34:41;;;;;;;7.28;2.97;;;14.50;96.50;;;;;;5051938;28;20049;-78
2021/10/27 04:37:09;;;;;;;8.60;2.42;;;14.50;96.40;;;;;;5035470;28;20469;-78
2021/10/27 04:39:35;;;;;;;9.00;2.30;;;14.50;96.40;;;;;;5053153;28;20017;-78
2021/10/27 04:42:01;;;;;;;12.75;3.08;;;14.50;96.40;;;;;;5053006;28;20033;-78
2021/10/27 04:44:27;;;;;;;7.30;2.75;;;14.50;96.40;;;;;;5051684;28;20465;-75
2021/10/27 04:46:52;;;;;;;8.48;2.65;;;14.50;96.40;;;;;;5052900;28;20029;-77
2021/10/27 04:49:18;;;;;;;13.43;2.97;;;14.50;96.30;;;;;;5052980;28;20029;-77
2021/10/27 04:51:44;;;;;;;13.38;3.88;;;14.50;96.30;;;;;;5035094;28;20056;-77
2021/10/27 04:54:09;;;;;;;7.70;2.35;;;14.50;96.30;;;;;;5031305;28;20115;-79
2021/10/27 04:56:35;;;;;;;7.82;2.80;;;14.50;96.20;;;;;;5070477;28;20138;-77
2021/10/27 04:59:01;;;;;;;8.60;3.00;;;14.50;96.20;;;;;;5070263;28;20029;-78
2021/10/27 05:01:27;;;;;;;8.45;3.00;;;14.50;96.20;;;;;;5053913;28;20477;-79
2021/10/27 05:03:53;;;;;;;7.80;3.33;;;14.50;96.10;;;;;;5055384;28;20469;-79
2021/10/27 05:06:19;;;;;;;10.30;2.38;;;14.50;96.10;;;;;;5071577;28;20036;-78
2021/10/27 05:08:47;;;;;;;9.38;3.33;;;14.50;96.10;;;;;;5054301;28;20021;-78
2021/10/27 05:11:12;;;;;;;13.00;3.45;;;14.50;96.00;;;;;;5073051;28;20017;-79
2021/10/27 05:13:38;;;;;;;9.27;2.97;;;14.50;96.10;;;;;;5055953;28;20027;-77
2021/10/27 05:16:04;;;;;;;10.02;2.83;;;14.50;96.00;;;;;;5076863;28;20104;-81
2021/10/27 05:18:29;;;;;;;9.75;2.95;;;14.50;96.00;;;;;;5076434;28;20045;-79
2021/10/27 05:20:55;;;;;;;8.98;2.33;;;14.40;96.00;;;;;;5057138;28;20031;-78
2021/10/27 05:23:21;;;;;;;7.90;2.65;;;14.50;96.30;;;;;;5054998;28;20028;-78
2021/10/27 05:25:47;;;;;;;7.60;2.58;;;14.50;96.30;;;;;;5062323;28;20035;-80
2021/10/27 05:28:13;;;;;;;11.25;2.92;;;14.50;96.00;;;;;;5073887;28;20052;-79
2021/10/27 05:30:39;;;;;;;11.40;2.78;;;14.50;96.00;;;;;;5033196;28;20114;-79
2021/10/27 05:33:04;;;;;;;11.68;2.33;;;14.50;96.00;;;;;;5057724;28;20028;-79
2021/10/27 05:35:31;;;;;;;10.48;2.85;;;14.50;96.00;;;;;;5054393;28;20449;-78
2021/10/27 05:37:59;;;;;;;7.47;2.67;;;14.50;96.00;;;;;;5055078;28;20112;-77
2021/10/27 05:40:25;;;;;;;7.85;2.28;;;14.50;96.00;;;;;;5038628;28;20086;-81
2021/10/27 05:42:51;;;;;;;9.80;2.72;;;14.50;95.90;;;;;;5056353;28;20024;-79
2021/10/27 05:45:18;;;;;;;10.70;3.10;;;14.50;95.90;;;;;;5066170;28;20028;-78
2021/10/27 05:47:47;;;;;;;8.02;2.42;;;14.50;96.10;;;;;;5028556;28;20051;-79
2021/10/27 05:57:39;;;;;;;8.05;2.58;;;14.50;95.80;;;;;;5075134;28;20040;-79
2021/10/27 06:00:10;;;;;;;7.85;2.42;;;14.50;95.90;;;;;;5059144;28;20040;-79
2021/10/27 06:02:35;;;;;;;10.30;2.80;;;14.50;95.80;;;;;;5075090;28;20130;-82
2021/10/27 06:05:02;;;;;;;9.23;2.72;;;14.50;95.80;;;;;;5057831;28;20025;-77
2021/10/27 06:07:27;;;;;;;11.50;3.03;;;14.50;95.80;;;;;;5042782;28;20060;-81
2021/10/27 06:09:55;;;;;;;12.75;2.90;;;14.40;95.80;;;;;;5047961;28;20483;-77
2021/10/27 06:12:21;;;;;;;12.70;3.47;;;14.50;95.80;;;;;;5071942;28;20032;-78
2021/10/27 06:14:47;;;;;;;11.70;2.97;;;14.40;95.70;;;;;;5056980;28;20522;-79
2021/10/27 06:17:13;;;;;;;8.20;3.40;;;14.40;95.80;;;;;;5055903;28;20190;-81
2021/10/27 06:19:39;;;;;;;9.95;3.60;;;14.50;95.80;;;;;;5073339;28;20052;-78
2021/10/27 06:22:05;;;;;;;13.52;3.28;;;14.40;95.70;;;;;;5072597;28;20127;-79
2021/10/27 06:24:31;;;;;;;10.18;3.45;;;14.40;95.80;;;;;;5053665;28;20126;-78
2021/10/27 06:26:59;;;;;;;12.90;3.75;;;14.40;96.00;;;;;;5053814;28;20067;-78
2021/10/27 06:29:40;;;;;;;11.27;3.35;;;14.40;95.80;;;;;;5037848;28;20037;-78
2021/10/27 06:48:41;;;;;;;11.43;3.63;;;14.40;95.70;;;;;;5041821;28;20489;-78
2021/10/27 06:51:07;;;;;;;10.93;4.15;;;14.30;95.70;;;;;;5047032;28;20033;-75
2021/10/27 06:53:33;;;;;;;11.38;3.83;;;14.30;95.70;;;;;;5054832;28;20029;-77
2021/10/27 06:56:00;;;;;;;12.95;4.10;;;14.30;95.70;;;;;;5059710;28;20076;-80
2021/10/27 06:58:26;;;;;;;11.32;4.75;;;14.30;95.70;;;;;;5053427;28;20163;-79
2021/10/27 07:00:56;;;;;;;13.82;5.13;;;14.30;95.70;;;;;;5052909;28;20024;-81
2021/10/27 07:03:41;;;;;;;11.65;4.25;;;14.30;95.70;;;;;;5037129;28;20025;-78
2021/10/27 07:17:02;;;;;;;10.82;4.15;;;14.30;95.60;;;;;;5053601;28;20083;-79
2021/10/27 07:19:27;;;;;;;12.68;4.72;;;14.30;95.70;;;;;;5052981;28;20069;-78
2021/10/27 07:21:53;;;;;;;16.23;4.45;;;14.30;95.70;;;;;;5036495;28;20037;-79
2021/10/27 07:24:19;;;;;;;12.95;4.75;;;14.30;95.70;;;;;;5053001;28;20029;-81
2021/10/27 07:26:45;;;;;;;10.10;4.53;;;14.30;95.60;;;;;;5053544;28;20075;-81
2021/10/27 07:29:16;;;;;;;14.60;5.75;;;14.30;95.60;;;;;;5053375;28;20025;-81
2021/10/27 07:31:43;;;;;;;13.68;5.63;;;14.30;95.60;;;;;;5054429;28;20028;-81
2021/10/27 07:34:11;;;;;;;11.18;5.18;;;14.30;95.60;;;;;;5036819;28;20040;-80
2021/10/27 07:41:56;;;;;;;11.43;5.47;;;14.40;95.60;;;;;;5053679;28;20119;-81
2021/10/27 07:44:22;;;;;;;14.63;5.30;;;14.40;95.60;;;;;;5036300;28;20080;-78
2021/10/27 07:46:48;;;;;;;14.27;5.63;;;14.30;95.50;;;;;;5054348;28;20031;-80
2021/10/27 07:49:14;;;;;;;11.52;5.70;;;14.40;95.50;;;;;;5036530;28;20516;-84
2021/10/27 07:51:40;;;;;;;10.10;4.20;;;14.40;95.50;;;;;;5052809;28;20045;-81
2021/10/27 07:54:06;;;;;;;15.32;5.72;;;14.40;95.40;;;;;;5052692;28;20021;-82
2021/10/27 07:56:32;;;;;;;11.50;5.00;;;14.50;95.40;;;;;;5052744;28;20219;-80
2021/10/27 07:59:01;;;;;;;12.57;5.50;;;14.50;95.40;;;;;;5036168;28;20033;-80
2021/10/27 08:01:27;;;;;;;11.57;5.35;;;14.50;95.40;;;;;;5052842;28;20021;-78
2021/10/27 08:03:53;;;;;;;15.00;4.97;;;14.50;95.30;;;;;;5052634;28;20036;-82
2021/10/27 08:06:19;;;;;;;10.60;4.95;;;14.50;95.20;;;;;;5052713;28;20033;-80
2021/10/27 08:08:44;;;;;;;10.73;5.18;;;14.50;95.10;;;;;;5035918;28;20504;-81
2021/10/27 08:11:11;;;;;;;12.27;4.82;;;14.40;95.20;;;;;;5036071;28;20100;-80
2021/10/27 08:13:37;;;;;;;11.35;5.28;;;14.40;95.20;;;;;;5035876;28;20086;-83
2021/10/27 08:16:03;;;;;;;11.65;5.28;;;14.40;95.20;;;;;;5052911;28;20024;-79
2021/10/27 08:18:29;;;;;;;12.00;5.57;;;14.50;95.20;;;;;;5053342;28;20079;-81
2021/10/27 08:20:55;;;;;;;11.82;5.97;;;14.50;95.20;;;;;;5035536;28;20075;-82
2021/10/27 08:23:24;;;;;;;14.68;6.50;;;14.50;95.10;;;;;;5052047;28;20052;-80
2021/10/27 08:25:54;;;;;;;12.05;5.50;;;14.40;95.00;;;;;;5035965;28;20522;-79
2021/10/27 08:28:41;;;;;;;16.75;5.97;;;14.50;95.10;;;;;;5053622;28;20469;-82
2021/10/27 08:34:21;;;;;;;12.82;5.32;;;14.70;95.10;;;;;;5053774;28;20041;-85
2021/10/27 08:36:37;;;;;;;14.73;6.35;;;14.70;94.80;;;;;;5038173;28;20474;-76
2021/10/27 08:39:05;;;;;;;12.25;5.40;;;14.70;94.80;;;;;;5035615;28;20025;-79
2021/10/27 08:41:32;;;;;;;12.48;5.50;;;14.80;94.80;;;;;;5051801;28;20075;-81
2021/10/27 08:43:59;;;;;;;14.00;6.47;;;14.80;95.00;;;;;;5052037;28;20044;-80
2021/10/27 08:46:25;;;;;;;15.02;6.40;;;14.80;94.60;;;;;;5052055;28;20059;-80
2021/10/27 08:48:52;;;;;;;14.02;6.18;;;14.80;94.60;;;;;;5055440;28;20025;-79
2021/10/27 08:51:18;;;;;;;14.77;6.50;;;14.80;94.60;;;;;;5056126;28;20393;-80
2021/10/27 08:53:46;;;;;;;17.42;6.25;;;14.80;94.70;;;;;;5056130;28;20039;-82
2021/10/27 08:56:12;;;;;;;13.60;6.10;;;14.80;94.70;;;;;;5056069;28;20029;-81
2021/10/27 08:58:43;;;;;;;14.27;5.82;;;14.80;94.80;;;;;;5056168;28;20040;-78
2021/10/27 09:07:08;;;;;;;12.38;6.43;;;14.90;94.70;;;;;;5025712;28;20124;-81
2021/10/27 09:09:58;;;;;;;10.30;5.80;;;15.00;94.80;;;;;;5055519;28;20100;-82
2021/10/27 09:35:29;;;;;;;13.52;5.97;;;15.40;94.30;;;;;;5056916;28;20044;-80
2021/10/27 09:46:39;;;;;;;8.40;3.85;;;16.90;94.80;;;;;;5067259;28;20415;-82
2021/10/27 10:06:16;;;;;;;8.98;3.33;;;20.50;84.90;;;;;;5075264;28;20039;-82
2021/10/27 10:08:47;;;;;;;6.20;2.23;;;20.80;82.90;;;;;;5074704;28;20048;-78
2021/10/27 10:11:14;;;;;;;7.20;2.85;;;21.10;83.00;;;;;;5074453;28;20032;-82
2021/10/27 10:13:40;;;;;;;6.07;3.05;;;21.50;78.40;;;;;;5057731;28;20020;-81
2021/10/27 10:16:06;;;;;;;7.97;3.10;;;21.80;76.90;;;;;;5074983;28;20093;-82
2021/10/27 10:18:33;;;;;;;7.93;2.65;;;21.80;74.60;;;;;;5041262;28;20049;-85
2021/10/27 10:20:59;;;;;;;7.85;2.58;;;22.00;73.30;;;;;;5074736;28;20027;-79
2021/10/27 10:23:26;;;;;;;8.30;2.15;;;22.20;72.80;;;;;;5074848;28;20039;-79
2021/10/27 10:25:54;;;;;;;8.13;2.60;;;22.40;71.40;;;;;;5074496;28;20020;-77
2021/10/27 10:28:25;;;;;;;7.70;2.60;;;22.70;70.60;;;;;;5075704;28;20024;-81
2021/10/27 10:31:03;;;;;;;5.43;2.20;;;23.10;69.70;;;;;;5074413;28;20054;-81
2021/10/27 10:33:44;;;;;;;5.07;1.95;;;23.30;68.10;;;;;;5075842;28;20016;-83
2021/10/27 10:36:25;;;;;;;6.78;2.70;;;23.50;66.90;;;;;;5074226;28;20102;-81
2021/10/27 10:44:41;;;;;;;5.53;2.13;;;23.90;63.60;;;;;;5075488;28;20028;-81
2021/10/27 11:37:51;;;;;;;9.13;4.20;;;19.80;66.90;;;;;;5074195;28;20040;-81
2021/10/27 11:40:38;;;;;;;7.20;3.35;;;19.40;68.00;;;;;;5057102;28;20058;-79
2021/10/27 11:45:54;;;;;;;7.20;4.00;;;19.00;69.80;;;;;;5073921;28;20025;-80
2021/10/27 11:50:57;;;;;;;9.00;4.18;;;18.70;71.30;;;;;;5073810;28;20028;-80
2021/10/27 11:53:25;;;;;;;7.97;4.45;;;18.50;71.90;;;;;;5072378;28;20024;-80
2021/10/27 11:55:52;;;;;;;8.10;3.88;;;18.50;73.00;;;;;;5069038;28;20376;-81
2021/10/27 11:58:19;;;;;;;9.27;4.03;;;18.40;72.80;;;;;;5072521;28;20028;-80
2021/10/27 12:00:48;;;;;;;7.75;3.75;;;18.30;73.30;;;;;;5055843;28;20090;-78
2021/10/27 12:03:17;;;;;;;8.95;3.47;;;18.20;73.70;;;;;;5072539;28;20024;-78
2021/10/27 12:06:01;;;;;;;6.60;3.50;;;18.20;73.90;;;;;;5072287;28;20365;-77
2021/10/27 12:19:57;;;;;;;8.55;3.78;;;18.00;75.50;;;;;;5073541;28;20040;-78
2021/10/27 12:22:24;;;;;;;11.73;3.92;;;18.10;75.90;;;;;;5055137;28;20439;-77
2021/10/27 12:24:57;;;;;;;9.60;3.92;;;18.10;75.70;;;;;;5073457;28;20032;-78
2021/10/27 12:27:32;;;;;;;10.25;4.50;;;18.10;75.90;;;;;;5055877;28;20485;-78
2021/10/27 12:30:07;;;;;;;6.93;3.58;;;18.10;75.70;;;;;;5056414;28;20119;-77
2021/10/27 12:32:34;;;;;;;9.45;5.13;;;18.10;75.70;;;;;;5073499;28;20469;-77
2021/10/27 12:35:09;;;;;;;7.25;3.70;;;18.00;75.90;;;;;;5072125;28;20446;-78
2021/10/27 12:37:46;;;;;;;8.40;3.53;;;18.20;76.10;;;;;;5072110;28;20107;-78
2021/10/27 12:40:29;;;;;;;5.38;3.28;;;18.20;76.10;;;;;;5073154;28;20052;-77
2021/10/27 12:43:03;;;;;;;9.48;4.03;;;18.30;76.10;;;;;;5072289;28;20025;-77
2021/10/27 12:45:35;;;;;;;9.30;3.00;;;18.30;76.20;;;;;;5072198;28;20043;-79
2021/10/27 12:48:20;;;;;;;8.40;3.75;;;18.30;76.20;;;;;;5072045;28;20037;-77
2021/10/27 12:50:56;;;;;;;7.63;3.17;;;18.30;76.40;;;;;;5071951;28;20024;-79
2021/10/27 12:53:38;;;;;;;9.13;4.10;;;18.20;76.50;;;;;;5072515;28;20021;-78
2021/10/27 12:56:08;;;;;;;6.85;4.30;;;18.30;76.40;;;;;;5053009;28;20067;-77
2021/10/27 12:58:40;;;;;;;9.82;4.63;;;18.40;76.30;;;;;;5051255;28;20435;-77
2021/10/27 13:01:45;;;;;;;7.10;3.65;;;18.60;76.20;;;;;;5051824;28;20108;-81
2021/10/27 13:04:23;;;;;;;8.43;5.03;;;18.80;76.00;;;;;;5051880;28;20021;-77
2021/10/27 13:15:36;;;;;;;;;;;18.60;75.00;;;;;;5052444;28;20095;-76
2021/10/27 13:23:11;;;;;;;7.88;4.22;;;18.70;75.30;;;;;;5042309;28;20394;-77
2021/10/27 13:31:12;;;;;;;;;;;18.90;73.80;;;;;;5053315;28;20068;-78
2021/10/27 13:33:37;;;;;;;7.60;4.63;;;18.80;74.00;;;;;;5051616;28;19954;-78
2021/10/27 13:36:04;;;;;;;8.02;4.28;;;18.80;73.50;;;;;;5037782;28;20067;-77
2021/10/27 13:38:35;;;;;;;9.85;4.20;;;18.70;73.50;;;;;;5055218;28;20161;-80
2021/10/27 13:41:03;;;;;;;12.68;5.03;;;18.70;73.50;;;;;;5039259;28;20032;-77
2021/10/27 13:43:35;;;;;;;9.23;4.15;;;18.70;73.60;;;;;;5056475;28;20017;-77
2021/10/27 14:07:47;;;;;;;7.20;2.55;;;22.10;66.00;;;;;;5057937;28;19919;-77
2021/10/27 14:10:17;;;;;;;11.25;2.58;;;22.60;64.40;;;;;;5022986;28;20025;-77
2021/10/27 14:12:52;;;;;;;8.10;2.88;;;23.00;62.80;;;;;;5038796;28;20465;-77
2021/10/27 15:35:42;;;;;;;;;;;20.90;62.90;;;;;;5054142;28;20041;-82
2021/10/27 15:41:01;;;;;;;7.68;1.67;;;20.50;63.60;;;;;;5064632;28;20232;-76
2021/10/27 15:43:42;;;;;;;7.30;1.98;;;20.40;64.00;;;;;;5059062;28;20025;-76
2021/10/27 15:51:42;;;;;;;7.18;1.95;;;19.90;65.20;;;;;;5054374;28;20043;-81
2021/10/27 15:54:08;;;;;;;6.95;2.28;;;19.80;65.60;;;;;;5053977;28;20021;-82
2021/10/27 15:56:34;;;;;;;5.55;2.25;;;19.70;66.00;;;;;;5025593;28;20473;-82
2021/10/27 15:59:00;;;;;;;6.38;1.95;;;19.50;66.30;;;;;;5051988;28;20090;-79
2021/10/27 16:01:26;;;;;;;8.82;2.85;;;19.40;66.70;;;;;;5055832;28;20052;-80
2021/10/27 16:03:51;;;;;;;7.22;1.92;;;19.30;67.10;;;;;;5055788;28;20066;-80
2021/10/27 16:06:23;;;;;;;5.85;2.10;;;19.20;67.50;;;;;;5057027;28;20032;-80
2021/10/27 16:08:52;;;;;;;6.95;2.08;;;19.00;67.90;;;;;;5021041;28;20401;-80
2021/10/27 16:11:17;;;;;;;8.32;2.38;;;18.80;68.30;;;;;;5052857;28;20484;-81
2021/10/27 16:13:43;;;;;;;8.07;2.00;;;18.70;69.30;;;;;;5042173;28;20081;-80
2021/10/27 16:16:11;;;;;;;7.28;2.10;;;18.70;69.00;;;;;;5055743;28;20032;-81
2021/10/27 16:18:37;;;;;;;4.95;2.10;;;18.60;69.30;;;;;;5034414;28;20063;-81
2021/10/27 16:21:04;;;;;;;9.00;2.20;;;18.40;69.60;;;;;;5038223;28;20032;-79
2021/10/27 16:23:29;;;;;;;5.82;2.00;;;18.40;69.90;;;;;;5054931;28;20037;-79
2021/10/27 16:25:56;;;;;;;5.20;1.80;;;18.30;70.20;;;;;;5052793;28;20465;-80
2021/10/27 16:28:23;;;;;;;8.43;1.95;;;18.20;70.50;;;;;;5019230;28;20040;-78
2021/10/27 16:30:50;;;;;;;4.78;1.92;;;18.20;70.70;;;;;;5052074;28;20424;-78
2021/10/27 16:33:18;;;;;;;8.43;2.33;;;18.10;70.90;;;;;;5045093;28;20096;-78
2021/10/27 16:35:44;;;;;;;12.77;2.58;;;18.00;71.30;;;;;;5060776;28;20029;-77
2021/10/27 16:38:10;;;;;;;5.47;1.80;;;17.90;71.70;;;;;;5051476;28;20044;-77
2021/10/27 16:40:36;;;;;;;5.13;1.90;;;17.80;72.00;;;;;;5037034;28;20037;-76
2021/10/27 16:43:02;;;;;;;6.47;2.10;;;17.70;72.30;;;;;;5068815;28;20035;-78
2021/10/27 16:45:29;;;;;;;6.78;2.03;;;17.60;72.70;;;;;;5052317;28;20538;-77
2021/10/27 16:47:55;;;;;;;8.27;2.38;;;17.40;72.80;;;;;;5054908;28;20036;-77
2021/10/27 16:50:21;;;;;;;6.25;1.70;;;17.30;73.20;;;;;;5038842;28;20021;-74
2021/10/27 16:52:48;;;;;;;5.65;1.80;;;17.20;73.60;;;;;;5073136;28;20033;-76
2021/10/27 16:55:21;;;;;;;6.50;1.83;;;17.00;74.00;;;;;;5072222;28;20025;-76
2021/10/27 16:57:49;;;;;;;4.68;1.65;;;16.90;74.30;;;;;;5071949;28;20025;-77
2021/10/27 17:00:20;;;;;;;5.70;2.03;;;16.80;74.60;;;;;;5072796;28;20036;-77
2021/10/27 17:02:46;;;;;;;5.55;1.83;;;16.70;75.00;;;;;;5071673;28;20085;-77
2021/10/27 17:05:12;;;;;;;6.05;2.13;;;16.60;75.30;;;;;;5055161;28;20051;-77
2021/10/27 17:07:39;;;;;;;6.38;1.70;;;16.50;76.20;;;;;;5071813;28;20503;-77
2021/10/27 17:10:08;;;;;;;7.35;2.30;;;16.40;76.30;;;;;;5076091;28;20400;-78
2021/10/27 17:12:35;;;;;;;4.43;1.85;;;16.30;76.90;;;;;;5076697;28;20074;-77
2021/10/27 17:15:01;;;;;;;10.07;2.33;;;16.20;77.20;;;;;;5076587;28;20028;-79
2021/10/27 17:17:27;;;;;;;6.25;2.17;;;16.20;77.60;;;;;;5075249;28;20388;-77
2021/10/27 17:19:53;;;;;;;5.80;2.08;;;16.10;78.30;;;;;;5075368;28;20032;-77
2021/10/27 17:22:24;;;;;;;6.07;2.20;;;16.00;78.10;;;;;;5075250;28;20373;-76
2021/10/27 17:24:49;;;;;;;8.63;2.85;;;15.90;78.60;;;;;;5075296;28;20039;-78
2021/10/27 17:27:15;;;;;;;5.35;2.58;;;15.90;79.30;;;;;;5058832;28;20032;-77
2021/10/27 17:29:41;;;;;;;5.95;2.50;;;15.80;79.40;;;;;;5075367;28;20025;-77
2021/10/27 17:32:07;;;;;;;7.22;2.25;;;15.70;79.50;;;;;;5076962;28;20032;-78
2021/10/27 17:34:33;;;;;;;8.73;2.72;;;15.70;79.70;;;;;;5058594;28;20206;-79
2021/10/27 17:36:59;;;;;;;8.82;2.70;;;15.60;80.50;;;;;;5075018;28;20067;-77
2021/10/27 17:39:26;;;;;;;9.18;2.88;;;15.60;80.60;;;;;;5075166;28;20060;-77
2021/10/27 17:41:52;;;;;;;7.38;2.83;;;15.50;80.80;;;;;;5076546;28;20090;-77
2021/10/27 17:44:18;;;;;;;5.85;2.63;;;15.40;81.10;;;;;;5075108;28;20456;-77